Date,TemperatureHighF,TemperatureAvgF,TemperatureLowF,DewpointHighF,DewpointAvgF,DewpointLowF,HumidityHigh,HumidityAvg,HumidityLow,PressureMaxIn,PressureMinIn,WindSpeedMaxMPH,WindSpeedAvgMPH,GustSpeedMaxMPH,PrecipitationSumIn
2013-10-1,74.0,70.6,68.0,-99.9,-99.9,-99.9,0,0,100,0.00,40.00,3,1,0,0.00
2013-10-2,84.0,72.6,65.0,-99.9,-99.9,-99.9,0,0,100,0.00,40.00,6,2,0,0.00
2013-10-3,86.0,74.8,70.0,-99.9,-99.9,-99.9,0,0,100,0.00,40.00,11,3,0,0.06
2013-10-4,87.0,77.4,70.0,-99.9,-99.9,-99.9,0,0,100,0.00,40.00,10,4,0,0.06
2013-10-5,78.0,66.2,53.0,-99.9,-99.9,-99.9,0,0,100,0.00,40.00,5,2,0,0.18
2013-10-6,54.0,50.3,45.0,-99.9,-99.9,-99.9,0,0,100,0.00,40.00,7,2,0,0.06
2013-10-7,72.0,58.3,51.0,-99.9,-99.9,-99.9,0,0,100,0.00,40.00,7,4,0,0.05
2013-10-8,75.0,62.2,50.0,-99.9,-99.9,-99.9,0,0,100,0.00,40.00,8,3,0,0.00
2013-10-9,72.0,60.4,50.0,-99.9,-99.9,-99.9,0,0,100,0.00,40.00,7,3,0,0.00
2013-10-10,76.0,62.7,53.0,-99.9,-99.9,-99.9,0,0,100,0.00,40.00,8,2,0,0.00
2013-10-11,77.0,67.0,58.0,-99.9,-99.9,-99.9,0,0,100,0.00,40.00,12,5,0,0.00
2013-10-12,72.0,65.7,60.0,-99.9,-99.9,-99.9,0,0,100,0.00,40.00,16,5,0,0.00
2013-10-13,71.0,58.7,51.0,-99.9,-99.9,-99.9,0,0,100,0.00,40.00,5,2,0,0.00
2013-10-14,67.0,56.8,45.0,-99.9,-99.9,-99.9,0,0,100,0.00,40.00,9,5,0,0.00
2013-10-15,68.0,61.7,52.0,-99.9,-99.9,-99.9,0,0,100,0.00,40.00,9,4,0,0.30
2013-10-16,55.0,51.0,46.0,-99.9,-99.9,-99.9,0,0,100,0.00,40.00,7,3,0,0.01
2013-10-17,66.0,53.9,47.0,-99.9,-99.9,-99.9,0,0,100,0.00,40.00,4,2,0,0.05
2013-10-18,55.0,48.7,42.0,-99.9,-99.9,-99.9,0,0,100,0.00,40.00,11,6,0,0.03
2013-10-19,59.0,46.9,38.0,-99.9,-99.9,-99.9,0,0,100,0.00,40.00,5,2,0,0.05
2013-10-20,73.0,58.3,47.0,-99.9,-99.9,-99.9,0,0,100,0.00,40.00,4,2,0,0.00
2013-10-21,60.0,49.8,44.0,-99.9,-99.9,-99.9,0,0,100,0.00,40.00,18,7,0,0.00
2013-10-22,58.0,46.1,39.0,-99.9,-99.9,-99.9,0,0,100,0.00,40.00,25,8,0,0.05
2013-10-23,48.0,41.2,36.0,-99.9,-99.9,-99.9,0,0,100,0.00,40.00,13,6,0,0.01
2013-10-24,46.0,40.3,35.0,-99.9,-99.9,-99.9,0,0,100,0.00,40.00,17,8,0,0.00
2013-10-25,57.0,42.7,31.0,-99.9,-99.9,-99.9,0,0,100,0.00,40.00,6,2,0,0.00
2013-10-26,59.0,49.0,42.0,-99.9,-99.9,-99.9,0,0,100,0.00,40.00,17,6,0,0.00
2013-10-27,61.0,45.3,33.0,-99.9,-99.9,-99.9,0,0,100,0.00,40.00,5,2,0,0.00
2013-10-28,65.0,47.5,35.0,-99.9,-99.9,-99.9,0,0,100,0.00,40.00,6,1,0,0.00
2013-10-29,56.0,50.7,45.0,-99.9,-99.9,-99.9,0,0,100,0.00,40.00,9,3,0,0.05
2013-10-30,66.0,59.8,55.0,-99.9,-99.9,-99.9,0,0,100,0.00,40.00,6,4,0,0.65
2013-10-31,65.0,56.9,47.0,-99.9,-99.9,-99.9,0,0,100,0.00,40.00,13,5,0,1.55